sensor_id;sensor_type;location;lat;lon;timestamp;P1;durP1;ratioP1;P2;durP2;ratioP2
34317;SDS011;20582;52.196;20.952;2022-10-18T00:00:32;36.28;;;23.90;;
34317;SDS011;20582;52.196;20.952;2022-10-18T00:02:58;37.35;;;23.02;;
34317;SDS011;20582;52.196;20.952;2022-10-18T00:05:24;40.90;;;21.88;;
34317;SDS011;20582;52.196;20.952;2022-10-18T00:07:49;40.38;;;21.75;;
34317;SDS011;20582;52.196;20.952;2022-10-18T00:10:15;33.75;;;20.35;;
34317;SDS011;20582;52.196;20.952;2022-10-18T00:12:41;33.63;;;21.05;;
34317;SDS011;20582;52.196;20.952;2022-10-18T00:15:08;33.83;;;19.92;;
34317;SDS011;20582;52.196;20.952;2022-10-18T00:17:36;35.45;;;20.60;;
34317;SDS011;20582;52.196;20.952;2022-10-18T00:20:02;29.98;;;20.15;;
34317;SDS011;20582;52.196;20.952;2022-10-18T00:22:29;31.08;;;19.10;;
34317;SDS011;20582;52.196;20.952;2022-10-18T00:24:55;29.80;;;18.30;;
34317;SDS011;20582;52.196;20.952;2022-10-18T00:27:21;26.63;;;16.80;;
34317;SDS011;20582;52.196;20.952;2022-10-18T00:29:47;29.10;;;17.65;;
34317;SDS011;20582;52.196;20.952;2022-10-18T00:32:13;28.67;;;17.95;;
34317;SDS011;20582;52.196;20.952;2022-10-18T00:34:39;29.95;;;18.35;;
34317;SDS011;20582;52.196;20.952;2022-10-18T00:37:05;28.75;;;18.00;;
34317;SDS011;20582;52.196;20.952;2022-10-18T00:39:31;27.42;;;18.38;;
34317;SDS011;20582;52.196;20.952;2022-10-18T00:41:57;30.08;;;18.58;;
34317;SDS011;20582;52.196;20.952;2022-10-18T00:46:49;27.60;;;16.80;;
34317;SDS011;20582;52.196;20.952;2022-10-18T00:49:17;27.00;;;16.77;;
34317;SDS011;20582;52.196;20.952;2022-10-18T00:51:45;23.35;;;15.10;;
34317;SDS011;20582;52.196;20.952;2022-10-18T00:54:12;28.77;;;14.25;;
34317;SDS011;20582;52.196;20.952;2022-10-18T00:56:38;24.92;;;14.52;;
34317;SDS011;20582;52.196;20.952;2022-10-18T00:59:04;22.88;;;13.55;;
34317;SDS011;20582;52.196;20.952;2022-10-18T01:01:31;21.60;;;12.23;;
34317;SDS011;20582;52.196;20.952;2022-10-18T01:03:57;21.95;;;12.60;;
34317;SDS011;20582;52.196;20.952;2022-10-18T01:06:24;21.85;;;12.27;;
34317;SDS011;20582;52.196;20.952;2022-10-18T01:14:01;19.48;;;11.88;;
34317;SDS011;20582;52.196;20.952;2022-10-18T01:16:31;20.20;;;11.70;;
34317;SDS011;20582;52.196;20.952;2022-10-18T01:32:34;24.45;;;11.48;;
34317;SDS011;20582;52.196;20.952;2022-10-18T01:35:02;17.38;;;10.80;;
34317;SDS011;20582;52.196;20.952;2022-10-18T01:37:29;24.33;;;10.60;;
34317;SDS011;20582;52.196;20.952;2022-10-18T01:39:56;19.33;;;11.13;;
34317;SDS011;20582;52.196;20.952;2022-10-18T01:42:23;20.50;;;11.00;;
34317;SDS011;20582;52.196;20.952;2022-10-18T01:44:49;19.90;;;10.32;;
34317;SDS011;20582;52.196;20.952;2022-10-18T01:47:16;21.85;;;11.38;;
34317;SDS011;20582;52.196;20.952;2022-10-18T01:49:42;17.90;;;11.10;;
34317;SDS011;20582;52.196;20.952;2022-10-18T01:52:11;16.77;;;10.80;;
34317;SDS011;20582;52.196;20.952;2022-10-18T01:54:38;17.42;;;10.65;;
34317;SDS011;20582;52.196;20.952;2022-10-18T02:02:18;19.77;;;10.13;;
34317;SDS011;20582;52.196;20.952;2022-10-18T02:04:53;22.25;;;10.60;;
34317;SDS011;20582;52.196;20.952;2022-10-18T02:10:02;17.20;;;9.85;;
34317;SDS011;20582;52.196;20.952;2022-10-18T02:12:29;20.40;;;10.15;;
34317;SDS011;20582;52.196;20.952;2022-10-18T02:14:57;17.17;;;10.30;;
34317;SDS011;20582;52.196;20.952;2022-10-18T02:17:23;16.55;;;9.77;;
34317;SDS011;20582;52.196;20.952;2022-10-18T02:19:52;15.40;;;9.65;;
34317;SDS011;20582;52.196;20.952;2022-10-18T02:22:18;17.52;;;9.52;;
34317;SDS011;20582;52.196;20.952;2022-10-18T02:24:47;17.08;;;9.48;;
34317;SDS011;20582;52.196;20.952;2022-10-18T02:27:14;14.57;;;9.75;;
34317;SDS011;20582;52.196;20.952;2022-10-18T02:29:40;19.73;;;10.35;;
34317;SDS011;20582;52.196;20.952;2022-10-18T02:34:56;17.27;;;9.43;;
34317;SDS011;20582;52.196;20.952;2022-10-18T02:37:24;16.38;;;9.88;;
34317;SDS011;20582;52.196;20.952;2022-10-18T02:39:52;15.43;;;9.23;;
34317;SDS011;20582;52.196;20.952;2022-10-18T02:42:18;18.02;;;9.52;;
34317;SDS011;20582;52.196;20.952;2022-10-18T02:44:44;18.80;;;9.88;;
34317;SDS011;20582;52.196;20.952;2022-10-18T02:47:10;17.05;;;10.20;;
34317;SDS011;20582;52.196;20.952;2022-10-18T02:49:37;17.50;;;9.52;;
34317;SDS011;20582;52.196;20.952;2022-10-18T02:52:03;17.67;;;9.75;;
34317;SDS011;20582;52.196;20.952;2022-10-18T02:54:29;17.88;;;9.88;;
34317;SDS011;20582;52.196;20.952;2022-10-18T02:56:55;14.82;;;9.48;;
34317;SDS011;20582;52.196;20.952;2022-10-18T02:59:21;15.52;;;9.68;;
34317;SDS011;20582;52.196;20.952;2022-10-18T03:01:47;17.35;;;9.23;;
34317;SDS011;20582;52.196;20.952;2022-10-18T03:04:12;16.77;;;8.85;;
34317;SDS011;20582;52.196;20.952;2022-10-18T03:06:39;17.35;;;9.27;;
34317;SDS011;20582;52.196;20.952;2022-10-18T03:09:05;16.90;;;9.23;;
34317;SDS011;20582;52.196;20.952;2022-10-18T03:11:31;16.33;;;8.80;;
34317;SDS011;20582;52.196;20.952;2022-10-18T03:13:57;16.13;;;9.20;;
34317;SDS011;20582;52.196;20.952;2022-10-18T03:16:23;20.88;;;9.45;;
34317;SDS011;20582;52.196;20.952;2022-10-18T03:18:49;19.60;;;8.85;;
34317;SDS011;20582;52.196;20.952;2022-10-18T03:21:15;17.48;;;9.30;;
34317;SDS011;20582;52.196;20.952;2022-10-18T03:23:41;15.07;;;9.35;;
34317;SDS011;20582;52.196;20.952;2022-10-18T03:26:07;16.70;;;9.50;;
34317;SDS011;20582;52.196;20.952;2022-10-18T03:28:33;17.58;;;9.18;;
34317;SDS011;20582;52.196;20.952;2022-10-18T03:31:00;14.88;;;9.32;;
34317;SDS011;20582;52.196;20.952;2022-10-18T03:33:26;17.70;;;9.98;;
34317;SDS011;20582;52.196;20.952;2022-10-18T03:35:53;16.38;;;8.98;;
34317;SDS011;20582;52.196;20.952;2022-10-18T03:38:19;19.45;;;9.38;;
34317;SDS011;20582;52.196;20.952;2022-10-18T03:40:45;21.73;;;9.13;;
34317;SDS011;20582;52.196;20.952;2022-10-18T03:43:10;18.25;;;9.13;;
34317;SDS011;20582;52.196;20.952;2022-10-18T03:45:36;14.63;;;8.57;;
34317;SDS011;20582;52.196;20.952;2022-10-18T03:48:02;15.88;;;8.52;;
34317;SDS011;20582;52.196;20.952;2022-10-18T03:50:29;17.92;;;9.02;;
34317;SDS011;20582;52.196;20.952;2022-10-18T03:52:54;18.48;;;9.20;;
34317;SDS011;20582;52.196;20.952;2022-10-18T03:55:21;15.48;;;8.98;;
34317;SDS011;20582;52.196;20.952;2022-10-18T03:57:47;16.08;;;8.88;;
34317;SDS011;20582;52.196;20.952;2022-10-18T04:00:13;16.90;;;9.18;;
34317;SDS011;20582;52.196;20.952;2022-10-18T04:02:39;17.55;;;8.82;;
34317;SDS011;20582;52.196;20.952;2022-10-18T04:05:05;20.45;;;9.27;;
34317;SDS011;20582;52.196;20.952;2022-10-18T04:07:31;15.60;;;8.98;;
34317;SDS011;20582;52.196;20.952;2022-10-18T04:09:57;16.27;;;8.93;;
34317;SDS011;20582;52.196;20.952;2022-10-18T04:12:23;19.05;;;9.32;;
34317;SDS011;20582;52.196;20.952;2022-10-18T04:14:49;17.58;;;8.73;;
34317;SDS011;20582;52.196;20.952;2022-10-18T04:17:15;14.85;;;8.75;;
34317;SDS011;20582;52.196;20.952;2022-10-18T04:19:41;16.50;;;8.73;;
34317;SDS011;20582;52.196;20.952;2022-10-18T04:22:08;14.57;;;8.65;;
34317;SDS011;20582;52.196;20.952;2022-10-18T04:24:35;14.43;;;8.65;;
34317;SDS011;20582;52.196;20.952;2022-10-18T04:27:01;17.38;;;8.93;;
34317;SDS011;20582;52.196;20.952;2022-10-18T04:29:27;16.20;;;8.85;;
34317;SDS011;20582;52.196;20.952;2022-10-18T04:31:53;14.57;;;8.90;;
34317;SDS011;20582;52.196;20.952;2022-10-18T04:34:19;17.15;;;8.60;;
34317;SDS011;20582;52.196;20.952;2022-10-18T04:36:45;16.90;;;9.40;;
34317;SDS011;20582;52.196;20.952;2022-10-18T04:39:11;15.55;;;9.52;;
34317;SDS011;20582;52.196;20.952;2022-10-18T04:41:37;14.98;;;8.77;;
34317;SDS011;20582;52.196;20.952;2022-10-18T04:44:03;18.08;;;8.63;;
34317;SDS011;20582;52.196;20.952;2022-10-18T04:46:29;14.68;;;8.65;;
34317;SDS011;20582;52.196;20.952;2022-10-18T04:48:55;18.08;;;10.10;;
34317;SDS011;20582;52.196;20.952;2022-10-18T04:51:21;16.67;;;9.35;;
34317;SDS011;20582;52.196;20.952;2022-10-18T04:53:47;14.25;;;9.07;;
34317;SDS011;20582;52.196;20.952;2022-10-18T04:56:13;16.67;;;8.48;;
34317;SDS011;20582;52.196;20.952;2022-10-18T04:58:39;17.45;;;9.13;;
34317;SDS011;20582;52.196;20.952;2022-10-18T05:01:05;16.88;;;9.05;;
34317;SDS011;20582;52.196;20.952;2022-10-18T05:03:32;16.13;;;8.88;;
34317;SDS011;20582;52.196;20.952;2022-10-18T05:05:58;19.10;;;9.43;;
34317;SDS011;20582;52.196;20.952;2022-10-18T05:08:24;20.90;;;9.38;;
34317;SDS011;20582;52.196;20.952;2022-10-18T05:10:50;21.77;;;9.60;;
34317;SDS011;20582;52.196;20.952;2022-10-18T05:13:16;17.50;;;9.68;;
34317;SDS011;20582;52.196;20.952;2022-10-18T05:15:43;17.80;;;9.05;;
34317;SDS011;20582;52.196;20.952;2022-10-18T05:18:10;17.45;;;9.15;;
34317;SDS011;20582;52.196;20.952;2022-10-18T05:20:36;19.40;;;9.07;;
34317;SDS011;20582;52.196;20.952;2022-10-18T05:23:02;15.38;;;8.88;;
34317;SDS011;20582;52.196;20.952;2022-10-18T05:25:28;23.23;;;10.20;;
34317;SDS011;20582;52.196;20.952;2022-10-18T05:27:54;21.85;;;10.80;;
34317;SDS011;20582;52.196;20.952;2022-10-18T05:30:20;21.40;;;10.00;;
34317;SDS011;20582;52.196;20.952;2022-10-18T05:32:46;18.35;;;8.70;;
34317;SDS011;20582;52.196;20.952;2022-10-18T05:35:12;17.08;;;9.48;;
34317;SDS011;20582;52.196;20.952;2022-10-18T05:37:38;18.05;;;9.05;;
34317;SDS011;20582;52.196;20.952;2022-10-18T05:40:05;22.08;;;8.95;;
34317;SDS011;20582;52.196;20.952;2022-10-18T05:42:31;21.27;;;9.70;;
34317;SDS011;20582;52.196;20.952;2022-10-18T05:44:57;20.70;;;9.00;;
34317;SDS011;20582;52.196;20.952;2022-10-18T05:47:23;17.98;;;10.05;;
34317;SDS011;20582;52.196;20.952;2022-10-18T05:49:49;16.05;;;9.35;;
34317;SDS011;20582;52.196;20.952;2022-10-18T05:52:15;20.13;;;9.50;;
34317;SDS011;20582;52.196;20.952;2022-10-18T05:54:41;18.30;;;9.73;;
34317;SDS011;20582;52.196;20.952;2022-10-18T05:57:07;16.75;;;9.40;;
34317;SDS011;20582;52.196;20.952;2022-10-18T05:59:33;19.85;;;9.63;;
34317;SDS011;20582;52.196;20.952;2022-10-18T06:01:59;22.83;;;10.35;;
34317;SDS011;20582;52.196;20.952;2022-10-18T06:04:25;18.02;;;9.18;;
34317;SDS011;20582;52.196;20.952;2022-10-18T06:06:51;18.83;;;9.70;;
34317;SDS011;20582;52.196;20.952;2022-10-18T06:09:18;21.42;;;9.77;;
34317;SDS011;20582;52.196;20.952;2022-10-18T06:11:44;28.17;;;10.60;;
34317;SDS011;20582;52.196;20.952;2022-10-18T06:14:10;18.58;;;9.23;;
34317;SDS011;20582;52.196;20.952;2022-10-18T06:16:37;21.63;;;9.35;;
34317;SDS011;20582;52.196;20.952;2022-10-18T06:19:03;18.50;;;8.90;;
34317;SDS011;20582;52.196;20.952;2022-10-18T06:21:29;18.80;;;8.80;;
34317;SDS011;20582;52.196;20.952;2022-10-18T06:23:55;18.52;;;10.15;;
34317;SDS011;20582;52.196;20.952;2022-10-18T06:26:22;17.98;;;9.52;;
34317;SDS011;20582;52.196;20.952;2022-10-18T06:28:48;19.13;;;9.35;;
34317;SDS011;20582;52.196;20.952;2022-10-18T06:31:15;16.88;;;8.93;;
34317;SDS011;20582;52.196;20.952;2022-10-18T06:33:41;27.60;;;10.48;;
34317;SDS011;20582;52.196;20.952;2022-10-18T06:36:12;16.55;;;9.18;;
34317;SDS011;20582;52.196;20.952;2022-10-18T06:38:39;16.52;;;9.40;;
34317;SDS011;20582;52.196;20.952;2022-10-18T06:41:05;17.92;;;10.00;;
34317;SDS011;20582;52.196;20.952;2022-10-18T06:43:32;18.17;;;9.75;;
34317;SDS011;20582;52.196;20.952;2022-10-18T06:45:59;20.58;;;10.02;;
34317;SDS011;20582;52.196;20.952;2022-10-18T06:48:26;23.95;;;9.93;;
34317;SDS011;20582;52.196;20.952;2022-10-18T06:50:56;16.75;;;9.40;;
34317;SDS011;20582;52.196;20.952;2022-10-18T06:53:26;20.73;;;10.10;;
34317;SDS011;20582;52.196;20.952;2022-10-18T06:55:57;18.77;;;10.05;;
34317;SDS011;20582;52.196;20.952;2022-10-18T06:58:23;19.10;;;10.38;;
34317;SDS011;20582;52.196;20.952;2022-10-18T07:00:49;22.90;;;10.25;;
34317;SDS011;20582;52.196;20.952;2022-10-18T07:03:15;19.10;;;10.10;;
34317;SDS011;20582;52.196;20.952;2022-10-18T07:05:41;21.10;;;10.05;;
34317;SDS011;20582;52.196;20.952;2022-10-18T07:08:07;22.10;;;10.85;;
34317;SDS011;20582;52.196;20.952;2022-10-18T07:10:33;21.13;;;10.73;;
34317;SDS011;20582;52.196;20.952;2022-10-18T07:12:59;21.48;;;10.65;;
34317;SDS011;20582;52.196;20.952;2022-10-18T07:15:25;21.38;;;11.10;;
34317;SDS011;20582;52.196;20.952;2022-10-18T07:17:51;20.40;;;10.45;;
34317;SDS011;20582;52.196;20.952;2022-10-18T07:20:17;19.88;;;10.02;;
34317;SDS011;20582;52.196;20.952;2022-10-18T07:22:43;25.27;;;9.95;;
34317;SDS011;20582;52.196;20.952;2022-10-18T07:25:09;20.63;;;10.45;;
34317;SDS011;20582;52.196;20.952;2022-10-18T07:27:35;19.20;;;10.48;;
34317;SDS011;20582;52.196;20.952;2022-10-18T07:30:03;22.80;;;9.82;;
34317;SDS011;20582;52.196;20.952;2022-10-18T07:32:29;19.63;;;9.95;;
34317;SDS011;20582;52.196;20.952;2022-10-18T07:34:55;19.35;;;10.30;;
34317;SDS011;20582;52.196;20.952;2022-10-18T07:37:21;20.25;;;9.90;;
34317;SDS011;20582;52.196;20.952;2022-10-18T07:39:47;15.85;;;9.85;;
34317;SDS011;20582;52.196;20.952;2022-10-18T07:42:13;20.02;;;10.20;;
34317;SDS011;20582;52.196;20.952;2022-10-18T07:44:39;18.25;;;10.38;;
34317;SDS011;20582;52.196;20.952;2022-10-18T07:47:05;18.30;;;10.35;;
34317;SDS011;20582;52.196;20.952;2022-10-18T07:49:31;20.85;;;9.90;;
34317;SDS011;20582;52.196;20.952;2022-10-18T07:51:57;24.95;;;10.35;;
34317;SDS011;20582;52.196;20.952;2022-10-18T07:54:23;16.70;;;10.10;;
34317;SDS011;20582;52.196;20.952;2022-10-18T07:56:49;20.75;;;10.10;;
34317;SDS011;20582;52.196;20.952;2022-10-18T07:59:15;19.65;;;10.80;;
34317;SDS011;20582;52.196;20.952;2022-10-18T08:01:41;19.60;;;10.73;;
34317;SDS011;20582;52.196;20.952;2022-10-18T08:04:07;19.15;;;10.00;;
34317;SDS011;20582;52.196;20.952;2022-10-18T08:06:33;22.67;;;11.70;;
34317;SDS011;20582;52.196;20.952;2022-10-18T08:08:59;17.95;;;10.13;;
34317;SDS011;20582;52.196;20.952;2022-10-18T08:11:25;20.85;;;11.32;;
34317;SDS011;20582;52.196;20.952;2022-10-18T08:13:51;20.75;;;10.93;;
34317;SDS011;20582;52.196;20.952;2022-10-18T08:16:22;16.73;;;10.45;;
34317;SDS011;20582;52.196;20.952;2022-10-18T08:18:50;19.85;;;11.27;;
34317;SDS011;20582;52.196;20.952;2022-10-18T08:21:17;20.15;;;10.85;;
34317;SDS011;20582;52.196;20.952;2022-10-18T08:23:43;22.65;;;11.07;;
34317;SDS011;20582;52.196;20.952;2022-10-18T08:26:10;16.15;;;10.18;;
34317;SDS011;20582;52.196;20.952;2022-10-18T08:28:37;19.23;;;11.32;;
34317;SDS011;20582;52.196;20.952;2022-10-18T08:31:03;16.35;;;10.82;;
34317;SDS011;20582;52.196;20.952;2022-10-18T08:33:30;25.38;;;11.27;;
34317;SDS011;20582;52.196;20.952;2022-10-18T08:35:56;18.63;;;10.63;;
34317;SDS011;20582;52.196;20.952;2022-10-18T08:38:23;19.45;;;10.80;;
34317;SDS011;20582;52.196;20.952;2022-10-18T08:40:49;20.17;;;11.02;;
34317;SDS011;20582;52.196;20.952;2022-10-18T08:43:20;17.27;;;10.65;;
34317;SDS011;20582;52.196;20.952;2022-10-18T08:45:47;18.80;;;11.60;;
34317;SDS011;20582;52.196;20.952;2022-10-18T08:48:16;20.08;;;11.18;;
34317;SDS011;20582;52.196;20.952;2022-10-18T08:50:45;19.25;;;11.30;;
34317;SDS011;20582;52.196;20.952;2022-10-18T08:53:26;20.23;;;12.37;;
34317;SDS011;20582;52.196;20.952;2022-10-18T08:55:54;18.95;;;11.40;;
34317;SDS011;20582;52.196;20.952;2022-10-18T08:58:23;19.15;;;12.32;;
34317;SDS011;20582;52.196;20.952;2022-10-18T09:06:09;22.60;;;12.15;;
34317;SDS011;20582;52.196;20.952;2022-10-18T09:08:40;23.25;;;12.35;;
34317;SDS011;20582;52.196;20.952;2022-10-18T09:11:24;20.48;;;12.20;;
34317;SDS011;20582;52.196;20.952;2022-10-18T09:14:02;21.83;;;13.02;;
34317;SDS011;20582;52.196;20.952;2022-10-18T09:16:56;25.67;;;12.52;;
34317;SDS011;20582;52.196;20.952;2022-10-18T09:22:13;23.15;;;12.13;;
34317;SDS011;20582;52.196;20.952;2022-10-18T09:24:40;22.35;;;13.25;;
34317;SDS011;20582;52.196;20.952;2022-10-18T09:27:14;23.70;;;12.27;;
34317;SDS011;20582;52.196;20.952;2022-10-18T09:37:19;23.30;;;14.40;;
34317;SDS011;20582;52.196;20.952;2022-10-18T09:39:47;22.20;;;13.75;;
34317;SDS011;20582;52.196;20.952;2022-10-18T09:42:15;20.92;;;12.65;;
34317;SDS011;20582;52.196;20.952;2022-10-18T09:44:43;19.65;;;13.63;;
34317;SDS011;20582;52.196;20.952;2022-10-18T09:47:12;26.63;;;14.10;;
34317;SDS011;20582;52.196;20.952;2022-10-18T09:49:40;25.60;;;14.00;;
34317;SDS011;20582;52.196;20.952;2022-10-18T09:52:08;21.48;;;14.30;;
34317;SDS011;20582;52.196;20.952;2022-10-18T09:54:43;25.30;;;13.80;;
34317;SDS011;20582;52.196;20.952;2022-10-18T09:57:12;21.02;;;13.75;;
34317;SDS011;20582;52.196;20.952;2022-10-18T10:02:07;18.25;;;13.95;;
34317;SDS011;20582;52.196;20.952;2022-10-18T10:04:40;21.20;;;13.60;;
34317;SDS011;20582;52.196;20.952;2022-10-18T10:07:42;20.85;;;14.48;;
34317;SDS011;20582;52.196;20.952;2022-10-18T10:10:09;22.30;;;15.38;;
34317;SDS011;20582;52.196;20.952;2022-10-18T10:12:40;23.98;;;15.00;;
34317;SDS011;20582;52.196;20.952;2022-10-18T10:18:01;24.25;;;15.10;;
34317;SDS011;20582;52.196;20.952;2022-10-18T10:20:32;29.38;;;18.10;;
34317;SDS011;20582;52.196;20.952;2022-10-18T10:25:50;23.45;;;15.00;;
34317;SDS011;20582;52.196;20.952;2022-10-18T10:28:18;25.17;;;15.55;;
34317;SDS011;20582;52.196;20.952;2022-10-18T10:30:45;22.33;;;16.08;;
34317;SDS011;20582;52.196;20.952;2022-10-18T10:35:59;23.30;;;15.73;;
34317;SDS011;20582;52.196;20.952;2022-10-18T10:38:26;22.60;;;15.63;;
34317;SDS011;20582;52.196;20.952;2022-10-18T10:40:52;23.85;;;15.27;;
34317;SDS011;20582;52.196;20.952;2022-10-18T10:46:06;26.60;;;16.30;;
34317;SDS011;20582;52.196;20.952;2022-10-18T10:48:39;22.98;;;16.92;;
34317;SDS011;20582;52.196;20.952;2022-10-18T10:51:07;27.25;;;16.83;;
34317;SDS011;20582;52.196;20.952;2022-10-18T10:56:23;27.27;;;15.90;;
34317;SDS011;20582;52.196;20.952;2022-10-18T10:58:50;28.50;;;16.60;;
34317;SDS011;20582;52.196;20.952;2022-10-18T11:01:18;25.80;;;16.83;;
34317;SDS011;20582;52.196;20.952;2022-10-18T11:03:52;27.70;;;15.90;;
34317;SDS011;20582;52.196;20.952;2022-10-18T11:06:52;26.17;;;15.98;;
34317;SDS011;20582;52.196;20.952;2022-10-18T11:09:14;24.27;;;16.27;;
34317;SDS011;20582;52.196;20.952;2022-10-18T11:11:42;24.75;;;17.40;;
34317;SDS011;20582;52.196;20.952;2022-10-18T11:14:19;26.52;;;16.67;;
34317;SDS011;20582;52.196;20.952;2022-10-18T11:20:04;27.75;;;16.88;;
34317;SDS011;20582;52.196;20.952;2022-10-18T11:22:02;25.98;;;15.85;;
34317;SDS011;20582;52.196;20.952;2022-10-18T11:24:29;25.05;;;16.10;;
34317;SDS011;20582;52.196;20.952;2022-10-18T11:26:57;25.08;;;16.33;;
34317;SDS011;20582;52.196;20.952;2022-10-18T11:32:03;28.15;;;16.23;;
34317;SDS011;20582;52.196;20.952;2022-10-18T11:34:53;26.02;;;16.92;;
34317;SDS011;20582;52.196;20.952;2022-10-18T11:43:05;26.13;;;17.42;;
34317;SDS011;20582;52.196;20.952;2022-10-18T11:48:31;24.35;;;16.48;;
34317;SDS011;20582;52.196;20.952;2022-10-18T11:51:03;27.55;;;17.05;;
34317;SDS011;20582;52.196;20.952;2022-10-18T12:03:52;25.45;;;16.50;;
34317;SDS011;20582;52.196;20.952;2022-10-18T12:06:20;24.83;;;17.23;;
34317;SDS011;20582;52.196;20.952;2022-10-18T12:08:48;24.85;;;16.75;;
34317;SDS011;20582;52.196;20.952;2022-10-18T12:11:19;24.23;;;17.08;;
34317;SDS011;20582;52.196;20.952;2022-10-18T12:14:05;29.60;;;18.30;;
34317;SDS011;20582;52.196;20.952;2022-10-18T12:16:34;25.63;;;17.45;;
34317;SDS011;20582;52.196;20.952;2022-10-18T12:19:06;23.95;;;18.25;;
34317;SDS011;20582;52.196;20.952;2022-10-18T12:21:33;26.60;;;18.00;;
34317;SDS011;20582;52.196;20.952;2022-10-18T12:24:07;25.70;;;17.33;;
34317;SDS011;20582;52.196;20.952;2022-10-18T12:26:36;30.27;;;18.23;;
34317;SDS011;20582;52.196;20.952;2022-10-18T12:31:39;25.70;;;18.33;;
34317;SDS011;20582;52.196;20.952;2022-10-18T12:39:36;28.20;;;19.83;;
34317;SDS011;20582;52.196;20.952;2022-10-18T12:42:04;28.65;;;19.27;;
34317;SDS011;20582;52.196;20.952;2022-10-18T12:44:33;26.83;;;17.98;;
34317;SDS011;20582;52.196;20.952;2022-10-18T12:47:00;24.95;;;18.35;;
34317;SDS011;20582;52.196;20.952;2022-10-18T12:49:28;27.35;;;17.58;;
34317;SDS011;20582;52.196;20.952;2022-10-18T12:51:55;32.17;;;19.08;;
34317;SDS011;20582;52.196;20.952;2022-10-18T12:54:30;28.02;;;18.58;;
34317;SDS011;20582;52.196;20.952;2022-10-18T12:56:57;29.73;;;18.73;;
34317;SDS011;20582;52.196;20.952;2022-10-18T13:09:25;26.33;;;19.83;;
34317;SDS011;20582;52.196;20.952;2022-10-18T13:11:57;29.10;;;20.02;;
34317;SDS011;20582;52.196;20.952;2022-10-18T13:14:27;30.75;;;19.50;;
34317;SDS011;20582;52.196;20.952;2022-10-18T13:17:38;31.90;;;19.15;;
34317;SDS011;20582;52.196;20.952;2022-10-18T13:19:53;29.92;;;19.85;;
34317;SDS011;20582;52.196;20.952;2022-10-18T13:32:52;28.90;;;19.30;;
34317;SDS011;20582;52.196;20.952;2022-10-18T13:38:15;31.52;;;19.95;;
34317;SDS011;20582;52.196;20.952;2022-10-18T13:40:58;29.63;;;20.45;;
34317;SDS011;20582;52.196;20.952;2022-10-18T13:46:09;29.50;;;20.42;;
34317;SDS011;20582;52.196;20.952;2022-10-18T13:51:11;29.27;;;19.55;;
34317;SDS011;20582;52.196;20.952;2022-10-18T13:53:45;29.00;;;19.52;;
34317;SDS011;20582;52.196;20.952;2022-10-18T13:56:24;33.58;;;20.92;;
34317;SDS011;20582;52.196;20.952;2022-10-18T13:59:05;31.63;;;19.60;;
34317;SDS011;20582;52.196;20.952;2022-10-18T14:01:39;35.05;;;19.58;;
34317;SDS011;20582;52.196;20.952;2022-10-18T14:06:52;33.42;;;19.85;;
34317;SDS011;20582;52.196;20.952;2022-10-18T14:09:28;31.15;;;19.98;;
34317;SDS011;20582;52.196;20.952;2022-10-18T14:11:55;36.92;;;20.15;;
34317;SDS011;20582;52.196;20.952;2022-10-18T14:14:44;31.70;;;19.63;;
34317;SDS011;20582;52.196;20.952;2022-10-18T14:22:35;33.50;;;21.13;;
34317;SDS011;20582;52.196;20.952;2022-10-18T14:25:15;32.97;;;21.17;;
34317;SDS011;20582;52.196;20.952;2022-10-18T14:27:43;30.25;;;19.90;;
34317;SDS011;20582;52.196;20.952;2022-10-18T14:32:48;37.58;;;21.50;;
34317;SDS011;20582;52.196;20.952;2022-10-18T14:35:18;34.78;;;21.13;;
34317;SDS011;20582;52.196;20.952;2022-10-18T14:37:45;32.97;;;21.25;;
34317;SDS011;20582;52.196;20.952;2022-10-18T14:42:54;36.45;;;21.17;;
34317;SDS011;20582;52.196;20.952;2022-10-18T14:45:20;33.05;;;20.98;;
34317;SDS011;20582;52.196;20.952;2022-10-18T14:47:46;34.08;;;21.77;;
34317;SDS011;20582;52.196;20.952;2022-10-18T14:50:22;34.55;;;21.98;;
34317;SDS011;20582;52.196;20.952;2022-10-18T14:52:49;31.60;;;22.13;;
34317;SDS011;20582;52.196;20.952;2022-10-18T14:55:33;32.25;;;20.55;;
34317;SDS011;20582;52.196;20.952;2022-10-18T14:58:00;29.35;;;21.27;;
34317;SDS011;20582;52.196;20.952;2022-10-18T15:00:33;29.85;;;20.27;;
34317;SDS011;20582;52.196;20.952;2022-10-18T15:03:00;36.20;;;21.25;;
34317;SDS011;20582;52.196;20.952;2022-10-18T15:05:27;32.35;;;21.40;;
34317;SDS011;20582;52.196;20.952;2022-10-18T15:07:53;33.42;;;21.83;;
34317;SDS011;20582;52.196;20.952;2022-10-18T15:10:22;34.17;;;22.02;;
34317;SDS011;20582;52.196;20.952;2022-10-18T15:12:50;35.88;;;22.65;;
34317;SDS011;20582;52.196;20.952;2022-10-18T15:15:20;32.67;;;22.80;;
34317;SDS011;20582;52.196;20.952;2022-10-18T15:17:47;31.95;;;22.23;;
34317;SDS011;20582;52.196;20.952;2022-10-18T15:20:27;35.03;;;23.15;;
34317;SDS011;20582;52.196;20.952;2022-10-18T15:23:17;37.03;;;23.40;;
34317;SDS011;20582;52.196;20.952;2022-10-18T15:25:41;34.35;;;24.20;;
34317;SDS011;20582;52.196;20.952;2022-10-18T15:28:15;36.35;;;24.27;;
34317;SDS011;20582;52.196;20.952;2022-10-18T15:30:46;40.45;;;23.92;;
34317;SDS011;20582;52.196;20.952;2022-10-18T15:33:19;35.63;;;23.15;;
34317;SDS011;20582;52.196;20.952;2022-10-18T15:35:46;31.40;;;20.20;;
34317;SDS011;20582;52.196;20.952;2022-10-18T15:40:42;22.92;;;14.68;;
34317;SDS011;20582;52.196;20.952;2022-10-18T15:45:57;15.00;;;8.00;;
34317;SDS011;20582;52.196;20.952;2022-10-18T15:48:32;13.35;;;7.05;;
34317;SDS011;20582;52.196;20.952;2022-10-18T15:50:59;12.30;;;5.53;;
34317;SDS011;20582;52.196;20.952;2022-10-18T15:58:42;8.85;;;4.55;;
34317;SDS011;20582;52.196;20.952;2022-10-18T16:01:13;9.65;;;4.75;;
34317;SDS011;20582;52.196;20.952;2022-10-18T16:03:40;9.85;;;5.53;;
34317;SDS011;20582;52.196;20.952;2022-10-18T16:06:07;15.40;;;7.18;;
34317;SDS011;20582;52.196;20.952;2022-10-18T16:08:35;15.93;;;8.45;;
34317;SDS011;20582;52.196;20.952;2022-10-18T16:11:04;22.35;;;9.13;;
34317;SDS011;20582;52.196;20.952;2022-10-18T16:13:31;18.88;;;9.65;;
34317;SDS011;20582;52.196;20.952;2022-10-18T16:15:57;18.38;;;10.48;;
34317;SDS011;20582;52.196;20.952;2022-10-18T16:18:24;23.33;;;11.65;;
34317;SDS011;20582;52.196;20.952;2022-10-18T16:20:51;17.83;;;9.30;;
34317;SDS011;20582;52.196;20.952;2022-10-18T16:23:20;16.77;;;8.70;;
34317;SDS011;20582;52.196;20.952;2022-10-18T16:25:46;17.85;;;8.63;;
34317;SDS011;20582;52.196;20.952;2022-10-18T16:28:17;16.92;;;8.88;;
34317;SDS011;20582;52.196;20.952;2022-10-18T16:30:44;16.47;;;8.87;;
34317;SDS011;20582;52.196;20.952;2022-10-18T16:33:11;17.55;;;8.95;;
34317;SDS011;20582;52.196;20.952;2022-10-18T16:35:38;19.48;;;10.35;;
34317;SDS011;20582;52.196;20.952;2022-10-18T16:38:04;19.98;;;10.93;;
34317;SDS011;20582;52.196;20.952;2022-10-18T16:40:30;16.83;;;10.95;;
34317;SDS011;20582;52.196;20.952;2022-10-18T16:42:56;18.23;;;10.93;;
34317;SDS011;20582;52.196;20.952;2022-10-18T16:45:23;19.77;;;11.45;;
34317;SDS011;20582;52.196;20.952;2022-10-18T16:47:48;19.05;;;11.23;;